Startpagina
METAR-TAF:

METAR-TAF

Vliegvelden :

Aeropuerto Internacional Jorge Wilstermann

Cochabamba, Bolivia

breedte: 17-25S, lengte: 066-11W, hoogte: 2548 m

Actueel weer

Dit bericht is 57 minuten geleden gemaakt, om 01:00 UTC
Wind 7 kt uit het zuidoosten
Temperatuur 20°C
Vochtigheid 46%
Druk 1020 hPa
Zicht 10 km of meer
Weinig wolken op 3000 ft
Gebroken wolken op 20000 ft

METAR: SLCB 290100Z 14007KT 9999 FEW030 BKN200 20/08 Q1020

Tijdstip: 21:57 (01:57 UTC)

Verwachting

Dit bericht is 3 uur en het 2 minuten geleden gemaakt, om 22:55 UTC
Verwachting geldig van 29 om 00 UTC tot 29 om 24 UTC
Wind 10 kt uit het zuidoosten
Zicht 10 km of meer
Verspreide wolken op 3000 ft
Wijzigt naar
van 29 om 02 UTC tot 29 om 04 UTC
Wind kt uit het noorden
Weinig wolken op 3000 ft
Verspreide wolken op 8000 ft
Wijzigt naar
van 29 om 14 UTC tot 29 om 16 UTC
Wind 10 kt uit het westzuidwesten

TAF: SLCB 282255Z 2900/2924 14010KT 9999 SCT030 TX29/2919Z TN15/2911Z BECMG 2902/2904 00000KT FEW030 SCT080 BECMG 2914/2916 24010KT

Waarnemingen en weersverwachtingen van meer dan 4000 vliegvelden (METAR en TAF).

De beschikbare stations zijn de gele en rode punten op de kaart.

Ga met uw muis naar het station om de naam te zien.

Klik dan om waarnemingen en weersverwachtingen te zien.

kaart wijzigen: klik op de groene knoppen met een zwart kruis om in te zoomen, op de groene knop met een streepje om uit te zoomen of op de groene pijlen voor aangrenzende kaarten.


METAR-TAF: